Time;durP1;ratioP1;P1;durP2;ratioP2;P2;SDS_P1;SDS_P2;PMS_P1;PMS_P2;Temp;Humidity;BMP_temperature;BMP_pressure;BME280_temperature;BME280_humidity;BME280_pressure;Samples;Min_cycle;Max_cycle;Signal;HPM_P1;HPM_P2
2022/12/29 00:01:59;;;;;;;;;;;11.20;99.90;;;;;;5051586;28;20391;-50
2022/12/29 00:04:25;;;;;;;;;;;11.20;99.90;;;;;;5051246;28;19913;-47
2022/12/29 00:06:51;;;;;;;;;;;11.10;99.90;;;;;;5051295;28;19913;-47
2022/12/29 00:09:17;;;;;;;;;;;11.00;99.90;;;;;;5051301;28;19951;-50
2022/12/29 00:11:43;;;;;;;;;;;10.90;99.90;;;;;;5051410;28;19944;-48
2022/12/29 00:16:54;;;;;;;;;;;10.60;99.90;;;;;;5051035;28;20422;-51
2022/12/29 00:36:16;;;;;;;;;;;10.60;99.90;;;;;;5050522;28;20284;-48
2022/12/29 00:44:13;;;;;;;;;;;10.90;99.90;;;;;;5049772;28;20388;-48
2022/12/29 00:46:40;;;;;;;;;;;10.90;99.90;;;;;;5050832;28;19908;-46
2022/12/29 00:51:51;;;;;;;;;;;10.90;99.90;;;;;;5050971;28;20379;-46
2022/12/29 00:54:17;;;;;;;;;;;10.80;99.90;;;;;;5050796;28;19908;-49
2022/12/29 00:56:43;;;;;;;;;;;10.70;99.90;;;;;;5050646;28;19909;-47
2022/12/29 00:59:09;;;;;;;;;;;10.60;99.90;;;;;;5050576;28;19955;-48
2022/12/29 01:01:35;;;;;;;;;;;10.60;99.90;;;;;;5050790;28;19909;-49
2022/12/29 01:04:01;;;;;;;;;;;10.50;99.90;;;;;;5050936;28;19963;-47
2022/12/29 01:06:27;;;;;;;;;;;10.50;99.90;;;;;;5050578;28;20346;-54
2022/12/29 01:11:40;;;;;;;;;;;10.60;99.90;;;;;;5050811;28;19916;-52
2022/12/29 01:14:06;;;;;;;;;;;10.60;99.90;;;;;;5050850;28;19905;-46
2022/12/29 01:16:32;;;;;;;;;;;10.60;99.90;;;;;;5050644;28;20106;-48
2022/12/29 01:18:57;;;;;;;;;;;10.70;99.90;;;;;;5049080;28;20015;-48
2022/12/29 01:21:23;;;;;;;;;;;10.80;99.90;;;;;;5050498;28;19961;-51
2022/12/29 01:23:50;;;;;;;;;;;10.90;99.90;;;;;;5049304;28;19909;-48
2022/12/29 01:26:16;;;;;;;;;;;10.80;99.90;;;;;;5050446;28;19966;-48
2022/12/29 01:28:42;;;;;;;;;;;10.90;99.90;;;;;;5050104;28;20277;-48
2022/12/29 01:31:08;;;;;;;;;;;11.00;99.90;;;;;;5049207;28;19909;-47
2022/12/29 01:33:34;;;;;;;;;;;11.00;99.90;;;;;;5050592;28;19912;-49
2022/12/29 01:36:03;;;;;;;;;;;11.10;99.90;;;;;;5050465;28;20127;-48
2022/12/29 01:38:29;;;;;;;;;;;11.30;99.90;;;;;;5048880;28;20058;-49
2022/12/29 01:40:55;;;;;;;;;;;11.30;99.90;;;;;;5049059;28;19995;-47
2022/12/29 01:43:21;;;;;;;;;;;11.40;99.90;;;;;;5049122;28;19978;-50
2022/12/29 01:45:53;;;;;;;;;;;11.40;99.90;;;;;;5050335;28;19923;-47
2022/12/29 01:48:19;;;;;;;;;;;11.40;99.90;;;;;;5053217;28;19915;-51
2022/12/29 01:50:54;;;;;;;;;;;11.50;99.90;;;;;;5052477;28;19917;-47
2022/12/29 01:53:24;;;;;;;;;;;11.50;99.90;;;;;;5054105;28;20347;-48
2022/12/29 01:55:51;;;;;;;;;;;11.60;99.90;;;;;;5054016;28;19909;-49
2022/12/29 01:58:19;;;;;;;;;;;11.50;99.90;;;;;;5052324;28;19909;-47
2022/12/29 02:00:45;;;;;;;;;;;11.50;99.90;;;;;;5052335;28;19951;-47
2022/12/29 02:03:11;;;;;;;;;;;11.50;99.90;;;;;;5053695;28;20324;-47
2022/12/29 02:05:36;;;;;;;;;;;11.50;99.90;;;;;;5053631;28;20007;-46
2022/12/29 02:08:02;;;;;;;;;;;11.50;99.90;;;;;;5052058;28;20356;-47
2022/12/29 02:10:29;;;;;;;;;;;11.60;99.90;;;;;;5053366;28;19951;-48
2022/12/29 02:12:55;;;;;;;;;;;11.60;99.90;;;;;;5053531;28;19913;-50
2022/12/29 02:15:27;;;;;;;;;;;11.70;99.90;;;;;;5052300;28;19915;-48
2022/12/29 02:17:59;;;;;;;;;;;11.70;99.90;;;;;;5051982;28;19987;-48
2022/12/29 02:20:44;;;;;;;;;;;11.70;99.90;;;;;;5051921;28;19908;-46
2022/12/29 02:23:25;;;;;;;;;;;11.70;99.90;;;;;;5052088;28;19915;-48
2022/12/29 02:26:11;;;;;;;;;;;11.60;99.90;;;;;;5052081;28;19917;-45
2022/12/29 02:28:57;;;;;;;;;;;11.60;99.90;;;;;;5051553;28;19909;-49
2022/12/29 02:31:35;;;;;;;;;;;11.70;99.90;;;;;;5051855;28;19912;-47
2022/12/29 02:34:00;;;;;;;;;;;11.70;99.90;;;;;;5052245;28;19963;-49
2022/12/29 02:36:29;;;;;;;;;;;11.70;99.90;;;;;;5051502;28;19913;-47
2022/12/29 02:38:58;;;;;;;;;;;11.70;99.90;;;;;;5051732;28;19982;-48
2022/12/29 02:41:32;;;;;;;;;;;11.70;99.90;;;;;;5051667;28;19963;-47
2022/12/29 02:44:09;;;;;;;;;;;11.70;99.90;;;;;;5053007;28;19909;-49
2022/12/29 02:46:44;;;;;;;;;;;11.70;99.90;;;;;;5051544;28;19921;-47
2022/12/29 02:49:11;;;;;;;;;;;11.60;99.90;;;;;;5064245;22;19925;-51
2022/12/29 02:51:39;;;;;;;;;;;11.70;99.90;;;;;;5051437;28;19954;-50
2022/12/29 02:56:49;;;;;;;;;;;11.70;99.90;;;;;;5051211;28;19908;-51
2022/12/29 02:59:16;;;;;;;;;;;11.70;99.90;;;;;;5051779;28;19915;-53
2022/12/29 03:04:46;;;;;;;;;;;11.80;99.90;;;;;;5051320;28;19999;-50
2022/12/29 03:07:13;;;;;;;;;;;11.70;99.90;;;;;;5051131;28;19913;-49
2022/12/29 03:09:46;;;;;;;;;;;11.70;99.90;;;;;;5050800;28;20279;-49
2022/12/29 03:18:29;;;;;;;;;;;11.70;99.90;;;;;;5052064;28;20284;-50
2022/12/29 03:21:02;;;;;;;;;;;11.70;99.90;;;;;;5033671;28;19919;-51
2022/12/29 03:23:29;;;;;;;;;;;11.70;99.90;;;;;;5050920;28;19935;-52
2022/12/29 03:25:59;;;;;;;;;;;11.70;99.90;;;;;;5050801;28;19974;-55
2022/12/29 03:28:31;;;;;;;;;;;11.70;99.90;;;;;;5050528;28;20285;-55
2022/12/29 03:30:58;;;;;;;;;;;11.80;99.90;;;;;;5050716;28;19913;-55
2022/12/29 03:33:26;;;;;;;;;;;11.80;99.90;;;;;;5050749;28;19940;-56
2022/12/29 03:35:55;;;;;;;;;;;11.70;99.90;;;;;;5050687;28;20006;-54
2022/12/29 03:38:24;;;;;;;;;;;11.70;99.90;;;;;;5051822;28;19908;-53
2022/12/29 03:40:55;;;;;;;;;;;11.80;99.90;;;;;;5050216;28;19908;-54
2022/12/29 03:43:23;;;;;;;;;;;11.80;99.90;;;;;;5050854;28;20442;-53
2022/12/29 03:45:49;;;;;;;;;;;11.80;99.90;;;;;;5050533;28;19916;-55
2022/12/29 03:48:15;;;;;;;;;;;11.70;99.90;;;;;;5051736;28;19958;-54
2022/12/29 03:50:42;;;;;;;;;;;11.80;99.90;;;;;;5050040;28;19912;-52
2022/12/29 03:53:08;;;;;;;;;;;11.80;99.90;;;;;;5050367;28;19908;-53
2022/12/29 03:55:34;;;;;;;;;;;11.80;99.90;;;;;;5050272;28;20437;-55
2022/12/29 03:58:00;;;;;;;;;;;11.80;99.90;;;;;;5050096;28;19940;-53
2022/12/29 04:00:40;;;;;;;;;;;11.80;99.90;;;;;;5049943;28;19909;-54
2022/12/29 04:03:06;;;;;;;;;;;11.80;99.90;;;;;;5050229;28;20273;-56
2022/12/29 04:05:32;;;;;;;;;;;11.90;99.90;;;;;;5050105;28;19960;-54
2022/12/29 04:07:58;;;;;;;;;;;11.90;99.90;;;;;;5049970;28;19909;-53
2022/12/29 04:10:24;;;;;;;;;;;11.90;99.90;;;;;;5048646;28;19978;-53
2022/12/29 04:12:53;;;;;;;;;;;11.80;99.90;;;;;;5050064;28;19908;-52
2022/12/29 04:15:18;;;;;;;;;;;11.70;99.90;;;;;;5050123;28;20277;-55
2022/12/29 04:17:44;;;;;;;;;;;11.70;99.90;;;;;;5051178;28;19908;-54
2022/12/29 04:23:04;;;;;;;;;;;11.80;99.90;;;;;;5049956;28;20231;-53
2022/12/29 04:25:30;;;;;;;;;;;11.90;99.90;;;;;;5051247;28;19935;-55
2022/12/29 04:27:56;;;;;;;;;;;11.90;99.90;;;;;;5051104;28;19915;-52
2022/12/29 04:30:43;;;;;;;;;;;11.90;99.90;;;;;;5049589;28;20463;-53
2022/12/29 04:33:16;;;;;;;;;;;11.90;99.90;;;;;;5049723;28;19915;-54
2022/12/29 04:35:43;;;;;;;;;;;12.00;99.90;;;;;;5049675;28;19908;-54
2022/12/29 04:38:08;;;;;;;;;;;12.00;99.90;;;;;;5049558;28;20391;-54
2022/12/29 04:40:34;;;;;;;;;;;12.00;99.90;;;;;;5050703;28;19909;-51
2022/12/29 04:43:00;;;;;;;;;;;12.00;99.90;;;;;;5051369;28;20333;-54
2022/12/29 04:45:26;;;;;;;;;;;12.10;99.90;;;;;;5049617;28;20369;-53
2022/12/29 04:47:58;;;;;;;;;;;12.10;99.90;;;;;;5049440;28;19909;-51
2022/12/29 04:50:57;;;;;;;;;;;12.10;99.90;;;;;;5037379;28;20138;-54
2022/12/29 04:53:24;;;;;;;;;;;12.10;99.90;;;;;;5049493;28;19917;-54
2022/12/29 04:55:52;;;;;;;;;;;12.10;99.90;;;;;;5049526;28;19913;-51
2022/12/29 04:58:19;;;;;;;;;;;12.10;99.90;;;;;;5049335;28;19908;-56
2022/12/29 05:00:46;;;;;;;;;;;12.20;99.90;;;;;;5049477;28;19905;-55
2022/12/29 05:03:11;;;;;;;;;;;12.20;99.90;;;;;;5049514;28;20254;-53
2022/12/29 05:05:40;;;;;;;;;;;12.20;99.90;;;;;;5049358;28;19912;-53
2022/12/29 05:08:06;;;;;;;;;;;12.20;99.90;;;;;;5049151;28;19954;-54
2022/12/29 05:10:31;;;;;;;;;;;12.20;99.90;;;;;;5049062;28;20369;-52
2022/12/29 05:13:01;;;;;;;;;;;12.20;99.90;;;;;;5049391;28;19909;-54
2022/12/29 05:15:27;;;;;;;;;;;12.20;99.90;;;;;;5049476;28;20266;-54
2022/12/29 05:17:53;;;;;;;;;;;12.20;99.90;;;;;;5049144;28;19909;-55
2022/12/29 05:20:19;;;;;;;;;;;12.20;99.90;;;;;;5048944;28;19916;-53
2022/12/29 05:22:45;;;;;;;;;;;12.30;99.90;;;;;;5051786;28;19912;-54
2022/12/29 05:25:10;;;;;;;;;;;12.30;99.90;;;;;;5053068;28;20438;-54
2022/12/29 05:27:50;;;;;;;;;;;12.30;99.90;;;;;;5053015;28;19916;-55
2022/12/29 05:30:35;;;;;;;;;;;12.30;99.90;;;;;;5054190;28;19918;-54
2022/12/29 05:33:00;;;;;;;;;;;12.30;99.90;;;;;;5053091;28;19909;-53
2022/12/29 05:35:26;;;;;;;;;;;12.30;99.90;;;;;;5052893;28;19909;-55
2022/12/29 05:37:52;;;;;;;;;;;12.30;99.90;;;;;;5052726;28;19927;-53
2022/12/29 05:40:17;;;;;;;;;;;12.20;99.90;;;;;;5054007;28;19909;-54
2022/12/29 05:42:43;;;;;;;;;;;12.20;99.90;;;;;;5052976;28;20364;-50
2022/12/29 05:45:35;;;;;;;;;;;12.10;99.90;;;;;;5052842;28;19920;-51
2022/12/29 05:48:11;;;;;;;;;;;12.10;99.90;;;;;;5052765;28;19963;-54
2022/12/29 05:51:02;;;;;;;;;;;12.00;99.90;;;;;;5037764;28;19913;-55
2022/12/29 05:53:39;;;;;;;;;;;11.90;99.90;;;;;;5053943;28;19908;-55
2022/12/29 05:56:05;;;;;;;;;;;11.80;99.90;;;;;;5053899;28;19959;-54
2022/12/29 05:58:31;;;;;;;;;;;11.80;99.90;;;;;;5052025;28;19952;-55
2022/12/29 06:00:57;;;;;;;;;;;11.70;99.90;;;;;;5052508;28;19963;-54
2022/12/29 06:03:23;;;;;;;;;;;11.60;99.90;;;;;;5053838;28;19908;-53
2022/12/29 06:05:48;;;;;;;;;;;11.60;99.90;;;;;;5053734;28;19913;-55
2022/12/29 06:08:15;;;;;;;;;;;11.50;99.90;;;;;;5053474;28;20270;-53
2022/12/29 06:10:41;;;;;;;;;;;11.50;99.90;;;;;;5053468;28;20110;-50
2022/12/29 06:13:07;;;;;;;;;;;11.40;99.90;;;;;;5052255;28;20046;-56
2022/12/29 06:15:40;;;;;;;;;;;11.30;99.90;;;;;;5052312;28;20403;-54
2022/12/29 06:18:07;;;;;;;;;;;11.20;99.90;;;;;;5052192;28;19951;-53
2022/12/29 06:20:33;;;;;;;;;;;11.20;99.90;;;;;;5053246;28;19908;-51
2022/12/29 06:23:01;;;;;;;;;;;11.10;99.90;;;;;;5052121;28;19920;-53
2022/12/29 06:25:30;;;;;;;;;;;11.10;99.90;;;;;;5052064;28;19908;-51
2022/12/29 06:27:56;;;;;;;;;;;11.10;99.90;;;;;;5051763;28;20314;-51
2022/12/29 06:30:22;;;;;;;;;;;11.00;99.90;;;;;;5053019;28;19916;-53
2022/12/29 06:32:47;;;;;;;;;;;11.10;99.90;;;;;;5052795;28;19963;-52
2022/12/29 06:35:13;;;;;;;;;;;11.20;99.90;;;;;;5051505;28;19909;-50
2022/12/29 06:37:44;;;;;;;;;;;11.30;99.90;;;;;;5051709;28;19916;-53
2022/12/29 06:40:11;;;;;;;;;;;11.40;99.90;;;;;;5051467;28;19909;-55
2022/12/29 06:42:55;;;;;;;;;;;11.40;99.90;;;;;;5053112;28;19938;-52
2022/12/29 06:45:40;;;;;;;;;;;11.50;99.90;;;;;;5053010;28;19959;-52
2022/12/29 06:48:06;;;;;;;;;;;11.60;99.90;;;;;;5052762;28;20323;-55
2022/12/29 06:50:31;;;;;;;;;;;11.60;99.90;;;;;;5052519;28;19966;-55
2022/12/29 06:52:57;;;;;;;;;;;11.50;99.90;;;;;;5052719;28;19948;-54
2022/12/29 06:55:22;;;;;;;;;;;11.60;99.90;;;;;;5052854;28;19908;-52
2022/12/29 06:57:48;;;;;;;;;;;11.60;99.90;;;;;;5052467;28;19912;-49
2022/12/29 07:00:14;;;;;;;;;;;11.60;99.90;;;;;;5052384;28;19909;-55
2022/12/29 07:02:39;;;;;;;;;;;11.60;99.90;;;;;;5052773;28;19912;-52
2022/12/29 07:05:07;;;;;;;;;;;11.60;99.90;;;;;;5052538;28;19920;-53
2022/12/29 07:07:32;;;;;;;;;;;11.60;99.90;;;;;;5052444;28;20366;-55
2022/12/29 07:09:58;;;;;;;;;;;11.70;99.90;;;;;;5052288;28;19909;-54
2022/12/29 07:12:23;;;;;;;;;;;11.70;99.90;;;;;;5052555;28;19954;-52
2022/12/29 07:14:49;;;;;;;;;;;11.80;99.90;;;;;;5052579;28;19908;-51
2022/12/29 07:17:15;;;;;;;;;;;11.80;99.90;;;;;;5052342;28;20388;-52
2022/12/29 07:19:40;;;;;;;;;;;11.70;99.90;;;;;;5052016;28;19909;-49
2022/12/29 07:22:06;;;;;;;;;;;11.70;99.90;;;;;;5052362;28;20028;-53
2022/12/29 07:24:32;;;;;;;;;;;11.60;99.90;;;;;;5052158;28;19920;-53
2022/12/29 07:26:57;;;;;;;;;;;11.60;99.90;;;;;;5052029;28;20007;-51
2022/12/29 07:29:23;;;;;;;;;;;11.60;99.90;;;;;;5051990;28;19932;-51
2022/12/29 07:31:48;;;;;;;;;;;11.60;99.90;;;;;;5052019;28;19909;-53
2022/12/29 07:34:14;;;;;;;;;;;11.70;99.90;;;;;;5052100;28;19909;-53
2022/12/29 07:36:40;;;;;;;;;;;11.70;99.90;;;;;;5052195;28;20391;-52
2022/12/29 07:39:05;;;;;;;;;;;11.80;99.90;;;;;;5051891;28;19912;-52
2022/12/29 07:41:31;;;;;;;;;;;11.80;99.90;;;;;;5051922;28;19915;-50
2022/12/29 07:43:58;;;;;;;;;;;11.80;99.90;;;;;;5050504;28;19927;-53
2022/12/29 07:46:35;;;;;;;;;;;11.80;99.90;;;;;;5050255;28;19920;-53
2022/12/29 07:49:00;;;;;;;;;;;11.70;99.90;;;;;;5051410;28;19915;-52
2022/12/29 07:51:26;;;;;;;;;;;11.70;99.90;;;;;;5051762;28;19920;-54
2022/12/29 07:53:51;;;;;;;;;;;11.60;99.90;;;;;;5051741;28;19912;-49
2022/12/29 07:56:17;;;;;;;;;;;11.60;99.90;;;;;;5051675;28;20373;-50
2022/12/29 07:58:43;;;;;;;;;;;11.60;99.90;;;;;;5051126;28;20323;-55
2022/12/29 08:01:08;;;;;;;;;;;11.70;99.90;;;;;;5051550;28;19909;-54
2022/12/29 08:03:34;;;;;;;;;;;11.60;99.90;;;;;;5051523;28;20126;-53
2022/12/29 08:06:00;;;;;;;;;;;11.60;99.90;;;;;;5050073;28;19913;-53
2022/12/29 08:08:25;;;;;;;;;;;11.60;99.90;;;;;;5051424;28;19966;-52
2022/12/29 08:10:51;;;;;;;;;;;11.60;99.90;;;;;;5051086;28;19915;-55
2022/12/29 08:13:17;;;;;;;;;;;11.60;99.90;;;;;;5051531;28;19908;-54
2022/12/29 08:15:43;;;;;;;;;;;11.60;99.90;;;;;;5051323;28;19959;-53
2022/12/29 08:18:08;;;;;;;;;;;11.60;99.90;;;;;;5050936;28;19943;-54
2022/12/29 08:20:34;;;;;;;;;;;11.50;99.90;;;;;;5050856;28;20393;-52
2022/12/29 08:22:59;;;;;;;;;;;11.50;99.90;;;;;;5051243;28;19915;-52
2022/12/29 08:25:25;;;;;;;;;;;11.50;99.90;;;;;;5051153;28;19916;-54
2022/12/29 08:27:51;;;;;;;;;;;11.50;99.90;;;;;;5050958;28;19955;-53
2022/12/29 08:30:16;;;;;;;;;;;11.50;99.90;;;;;;5050815;28;19908;-54
2022/12/29 08:32:42;;;;;;;;;;;11.50;99.90;;;;;;5051095;28;20343;-52
2022/12/29 08:35:08;;;;;;;;;;;11.50;99.90;;;;;;5051119;28;20535;-53
2022/12/29 08:37:34;;;;;;;;;;;11.50;99.90;;;;;;5050842;28;19915;-53
2022/12/29 08:40:03;;;;;;;;;;;11.50;99.90;;;;;;5050651;28;20361;-52
2022/12/29 08:42:32;;;;;;;;;;;11.50;99.90;;;;;;5050946;28;19909;-53
2022/12/29 08:44:58;;;;;;;;;;;11.50;99.90;;;;;;5050887;28;19920;-51
2022/12/29 08:47:24;;;;;;;;;;;11.50;99.90;;;;;;5050612;28;19909;-52
2022/12/29 08:49:50;;;;;;;;;;;11.50;99.90;;;;;;5062139;22;20293;-49
2022/12/29 08:52:15;;;;;;;;;;;11.50;99.90;;;;;;5051134;28;19996;-51
2022/12/29 08:54:41;;;;;;;;;;;11.50;99.90;;;;;;5050901;28;19908;-51
2022/12/29 08:57:06;;;;;;;;;;;11.60;99.90;;;;;;5052327;28;19919;-48
2022/12/29 08:59:38;;;;;;;;;;;11.60;99.90;;;;;;5053392;28;19908;-51
2022/12/29 09:02:03;;;;;;;;;;;11.50;99.90;;;;;;5053563;28;19908;-52
2022/12/29 09:04:29;;;;;;;;;;;11.40;99.90;;;;;;5055270;28;19912;-50
2022/12/29 09:06:54;;;;;;;;;;;11.30;99.90;;;;;;5054907;28;20365;-49
2022/12/29 09:09:20;;;;;;;;;;;11.40;99.90;;;;;;5054602;28;20003;-53
2022/12/29 09:11:46;;;;;;;;;;;11.40;99.90;;;;;;5054696;28;19920;-49
2022/12/29 09:14:12;;;;;;;;;;;11.40;99.90;;;;;;5054818;28;19916;-48
2022/12/29 09:16:37;;;;;;;;;;;11.50;99.90;;;;;;5054441;28;20007;-51
2022/12/29 09:19:03;;;;;;;;;;;11.60;99.90;;;;;;5054615;28;20007;-51
2022/12/29 09:21:29;;;;;;;;;;;11.70;99.90;;;;;;5054584;28;19970;-51
2022/12/29 09:23:54;;;;;;;;;;;11.70;99.90;;;;;;5054599;28;19988;-48
2022/12/29 09:26:20;;;;;;;;;;;11.60;99.90;;;;;;5054359;28;20380;-52
2022/12/29 09:28:46;;;;;;;;;;;11.60;99.90;;;;;;5054136;28;19913;-49
2022/12/29 09:31:12;;;;;;;;;;;11.60;99.90;;;;;;5054320;28;20003;-49
2022/12/29 09:33:38;;;;;;;;;;;11.50;99.90;;;;;;5054467;28;19944;-50
2022/12/29 09:36:04;;;;;;;;;;;11.50;99.90;;;;;;5054655;28;19912;-51
2022/12/29 09:38:29;;;;;;;;;;;11.50;99.90;;;;;;5054107;28;20403;-48
2022/12/29 09:40:59;;;;;;;;;;;11.40;99.90;;;;;;5053962;28;19916;-52
2022/12/29 09:43:25;;;;;;;;;;;11.50;99.90;;;;;;5054211;28;20010;-49
2022/12/29 09:45:50;;;;;;;;;;;11.40;99.90;;;;;;5054090;28;20054;-52
2022/12/29 09:48:18;;;;;;;;;;;11.40;99.90;;;;;;5053956;28;19912;-52
2022/12/29 09:50:46;;;;;;;;;;;11.50;99.90;;;;;;5053592;28;19919;-52
2022/12/29 09:53:19;;;;;;;;;;;11.50;99.90;;;;;;5053956;28;20007;-49
2022/12/29 09:55:47;;;;;;;;;;;11.50;99.90;;;;;;5054001;28;20013;-51
2022/12/29 09:58:25;;;;;;;;;;;11.50;99.90;;;;;;5053539;28;19954;-51
2022/12/29 10:00:57;;;;;;;;;;;11.50;99.90;;;;;;5053484;28;19909;-50
2022/12/29 10:03:24;;;;;;;;;;;11.50;99.90;;;;;;5053915;28;19919;-51
2022/12/29 10:05:53;;;;;;;;;;;11.50;99.90;;;;;;5053846;28;20361;-52
2022/12/29 10:08:24;;;;;;;;;;;11.50;99.90;;;;;;5053500;28;19963;-52
2022/12/29 10:10:58;;;;;;;;;;;11.50;99.90;;;;;;5053295;28;19944;-51
2022/12/29 10:13:42;;;;;;;;;;;11.50;99.90;;;;;;5053677;28;19908;-49
2022/12/29 10:16:26;;;;;;;;;;;11.50;99.90;;;;;;5053965;28;19909;-51
2022/12/29 10:19:10;;;;;;;;;;;11.50;99.90;;;;;;5053386;28;19916;-50
2022/12/29 10:21:36;;;;;;;;;;;11.60;99.90;;;;;;5053675;28;20281;-49
2022/12/29 10:24:04;;;;;;;;;;;11.60;99.90;;;;;;5053544;28;19908;-51
2022/12/29 10:26:40;;;;;;;;;;;11.70;99.90;;;;;;5053344;28;19957;-51
2022/12/29 10:29:10;;;;;;;;;;;11.80;99.90;;;;;;5053149;28;19909;-52
2022/12/29 10:31:42;;;;;;;;;;;11.80;99.90;;;;;;5053251;28;19913;-51
2022/12/29 10:34:22;;;;;;;;;;;11.80;99.90;;;;;;5053502;28;19909;-50
2022/12/29 10:36:49;;;;;;;;;;;11.70;99.90;;;;;;5052982;28;20365;-51
2022/12/29 10:39:20;;;;;;;;;;;11.70;99.90;;;;;;5052883;28;19909;-49
2022/12/29 10:41:48;;;;;;;;;;;11.70;99.90;;;;;;5053004;28;20281;-47
2022/12/29 10:44:15;;;;;;;;;;;11.60;99.90;;;;;;5052969;28;19908;-47
2022/12/29 10:46:41;;;;;;;;;;;11.60;99.90;;;;;;5051427;28;20297;-47
2022/12/29 10:49:13;;;;;;;;;;;11.60;99.90;;;;;;5051277;28;19905;-47
2022/12/29 10:51:41;;;;;;;;;;;11.60;99.90;;;;;;5052982;28;19913;-48
2022/12/29 10:54:16;;;;;;;;;;;11.60;99.90;;;;;;5052916;28;19909;-47
2022/12/29 10:56:44;;;;;;;;;;;11.60;99.90;;;;;;5053028;28;19912;-49
2022/12/29 10:59:19;;;;;;;;;;;11.60;99.90;;;;;;5052546;28;19913;-49
2022/12/29 11:02:07;;;;;;;;;;;11.60;99.90;;;;;;5052727;28;19952;-48
2022/12/29 11:04:38;;;;;;;;;;;11.70;99.90;;;;;;5005480;28;19959;-48
2022/12/29 11:07:04;;;;;;;;;;;11.70;99.90;;;;;;5052473;28;19909;-47
2022/12/29 11:09:31;;;;;;;;;;;11.70;99.90;;;;;;5052369;28;19908;-47
2022/12/29 11:11:56;;;;;;;;;;;11.70;99.90;;;;;;5052474;28;19912;-50
2022/12/29 11:14:29;;;;;;;;;;;11.70;99.90;;;;;;5052524;28;19912;-47
2022/12/29 11:16:59;;;;;;;;;;;11.70;99.90;;;;;;5052280;28;20379;-48
2022/12/29 11:19:26;;;;;;;;;;;11.60;99.90;;;;;;5051958;28;19908;-48
2022/12/29 11:21:52;;;;;;;;;;;11.60;99.90;;;;;;5052625;28;19947;-47
2022/12/29 11:24:22;;;;;;;;;;;11.60;99.90;;;;;;5052344;28;19909;-48
2022/12/29 11:26:56;;;;;;;;;;;11.50;99.90;;;;;;5052301;28;19913;-47
2022/12/29 11:29:27;;;;;;;;;;;11.60;99.90;;;;;;5051945;28;20474;-47
2022/12/29 11:31:54;;;;;;;;;;;11.60;99.90;;;;;;5052200;28;20014;-48
2022/12/29 11:34:20;;;;;;;;;;;11.60;99.90;;;;;;5052454;28;20321;-49
2022/12/29 11:36:47;;;;;;;;;;;11.70;99.90;;;;;;5051854;28;19970;-49
2022/12/29 11:39:31;;;;;;;;;;;11.70;99.90;;;;;;5051955;28;20331;-47
2022/12/29 11:41:57;;;;;;;;;;;11.70;99.90;;;;;;5052010;28;19919;-46
2022/12/29 11:44:23;;;;;;;;;;;11.70;99.90;;;;;;5051893;28;19908;-47
2022/12/29 11:46:50;;;;;;;;;;;11.70;99.90;;;;;;5051800;28;20431;-47
2022/12/29 11:49:23;;;;;;;;;;;11.70;99.90;;;;;;5051578;28;20025;-49
2022/12/29 11:51:50;;;;;;;;;;;11.70;99.90;;;;;;5051983;28;19908;-47
2022/12/29 11:54:21;;;;;;;;;;;11.70;99.90;;;;;;5051850;28;19909;-46
2022/12/29 11:56:48;;;;;;;;;;;11.70;99.90;;;;;;5051676;28;20448;-48
2022/12/29 11:59:22;;;;;;;;;;;11.70;99.90;;;;;;5051430;28;19955;-47
2022/12/29 12:01:48;;;;;;;;;;;11.70;99.90;;;;;;5051774;28;19999;-48
2022/12/29 12:04:16;;;;;;;;;;;11.80;99.90;;;;;;5051798;28;19966;-48
2022/12/29 12:06:52;;;;;;;;;;;11.80;99.90;;;;;;5051392;28;19959;-49
2022/12/29 12:09:54;;;;;;;;;;;11.80;99.90;;;;;;5051234;28;20003;-47
2022/12/29 12:12:44;;;;;;;;;;;11.90;99.90;;;;;;4954361;28;19960;-52
2022/12/29 12:15:16;;;;;;;;;;;11.80;99.90;;;;;;5031804;28;19909;-52
2022/12/29 12:17:55;;;;;;;;;;;11.70;99.90;;;;;;5051258;28;19908;-50
2022/12/29 12:20:25;;;;;;;;;;;11.70;99.90;;;;;;5051044;28;19909;-51
2022/12/29 12:22:50;;;;;;;;;;;11.60;99.90;;;;;;5051392;28;19909;-48
2022/12/29 12:25:16;;;;;;;;;;;11.70;99.90;;;;;;5051237;28;20003;-47
2022/12/29 12:27:45;;;;;;;;;;;11.70;99.90;;;;;;5051041;28;19909;-49
2022/12/29 12:30:16;;;;;;;;;;;11.70;99.90;;;;;;5050875;28;19908;-51
2022/12/29 12:33:00;;;;;;;;;;;11.60;99.90;;;;;;5050476;28;19912;-53
2022/12/29 12:35:44;;;;;;;;;;;11.70;99.90;;;;;;5051245;28;19921;-51
2022/12/29 12:38:24;;;;;;;;;;;11.60;99.90;;;;;;5050942;28;19966;-50
2022/12/29 12:40:56;;;;;;;;;;;11.60;99.90;;;;;;5050724;28;19977;-49
2022/12/29 12:43:36;;;;;;;;;;;11.60;99.90;;;;;;5051110;28;19916;-53
2022/12/29 12:46:21;;;;;;;;;;;11.50;99.90;;;;;;5051198;28;19913;-50
2022/12/29 12:48:55;;;;;;;;;;;11.50;99.90;;;;;;5050860;28;19958;-51
2022/12/29 12:51:39;;;;;;;;;;;11.50;99.90;;;;;;5050811;28;19913;-48
2022/12/29 12:54:07;;;;;;;;;;;11.60;99.90;;;;;;5050794;28;19909;-49
2022/12/29 12:56:42;;;;;;;;;;;11.50;99.90;;;;;;5050796;28;19919;-51
2022/12/29 12:59:26;;;;;;;;;;;11.50;99.90;;;;;;5050658;28;19909;-48
2022/12/29 13:01:52;;;;;;;;;;;11.50;99.90;;;;;;5050917;28;20003;-49
2022/12/29 13:04:21;;;;;;;;;;;11.50;99.90;;;;;;5050937;28;19970;-48
2022/12/29 13:07:05;;;;;;;;;;;11.50;99.90;;;;;;5050777;28;20335;-49
2022/12/29 13:09:40;;;;;;;;;;;11.50;99.90;;;;;;5050501;28;19919;-47
2022/12/29 13:12:18;;;;;;;;;;;11.60;99.90;;;;;;5050752;28;20533;-48
2022/12/29 13:14:52;;;;;;;;;;;11.50;99.90;;;;;;5050962;28;19915;-48
2022/12/29 13:17:24;;;;;;;;;;;11.50;99.90;;;;;;5050646;28;19909;-49
2022/12/29 13:19:54;;;;;;;;;;;11.50;99.90;;;;;;5050560;28;19909;-47
2022/12/29 13:22:23;;;;;;;;;;;11.50;99.90;;;;;;5050654;28;19909;-48
2022/12/29 13:24:49;;;;;;;;;;;11.50;99.90;;;;;;5050851;28;19956;-50
2022/12/29 13:27:22;;;;;;;;;;;11.50;99.90;;;;;;5050613;28;19964;-48
2022/12/29 13:29:50;;;;;;;;;;;11.50;99.90;;;;;;5050809;28;19912;-47
2022/12/29 13:32:34;;;;;;;;;;;11.50;99.90;;;;;;5050791;28;19944;-48
2022/12/29 13:35:00;;;;;;;;;;;11.50;99.90;;;;;;5050724;28;19915;-47
2022/12/29 13:37:27;;;;;;;;;;;11.50;99.90;;;;;;5050741;28;20364;-48
2022/12/29 13:39:59;;;;;;;;;;;11.40;99.90;;;;;;5050686;28;19909;-49
2022/12/29 13:42:25;;;;;;;;;;;11.30;99.90;;;;;;5051138;28;20356;-49
2022/12/29 13:44:57;;;;;;;;;;;11.30;99.90;;;;;;5055048;28;20323;-51
2022/12/29 13:47:25;;;;;;;;;;;11.30;99.90;;;;;;5054273;28;19908;-52
2022/12/29 13:49:51;;;;;;;;;;;11.30;99.90;;;;;;5054142;28;19912;-51
2022/12/29 13:52:23;;;;;;;;;;;11.30;99.90;;;;;;5054396;28;19912;-48
2022/12/29 13:54:58;;;;;;;;;;;11.30;99.90;;;;;;5054477;28;19912;-49
2022/12/29 13:57:42;;;;;;;;;;;11.20;99.90;;;;;;5054201;28;19912;-46
2022/12/29 14:00:20;;;;;;;;;;;11.20;99.90;;;;;;5054052;28;19916;-47
2022/12/29 14:02:46;;;;;;;;;;;11.20;99.90;;;;;;5054282;28;19913;-49
2022/12/29 14:05:18;;;;;;;;;;;11.10;99.90;;;;;;5052867;28;19934;-48
2022/12/29 14:07:44;;;;;;;;;;;11.20;99.90;;;;;;5053809;28;20004;-49
2022/12/29 14:10:25;;;;;;;;;;;11.10;99.90;;;;;;5053735;28;19932;-50
2022/12/29 14:12:51;;;;;;;;;;;11.10;99.90;;;;;;5054046;28;19909;-51
2022/12/29 14:15:21;;;;;;;;;;;11.00;99.90;;;;;;5053937;28;19912;-52
2022/12/29 14:18:12;;;;;;;;;;;11.00;99.90;;;;;;5053853;28;20007;-51
2022/12/29 14:20:39;;;;;;;;;;;11.00;99.90;;;;;;5053526;28;19954;-49
2022/12/29 14:23:08;;;;;;;;;;;11.00;99.90;;;;;;5053752;28;19909;-51
2022/12/29 14:25:52;;;;;;;;;;;11.00;99.90;;;;;;5053702;28;19913;-50
2022/12/29 14:28:26;;;;;;;;;;;11.00;99.90;;;;;;5053564;28;20288;-50
2022/12/29 14:30:53;;;;;;;;;;;11.00;99.90;;;;;;5053484;28;19955;-51
2022/12/29 14:33:20;;;;;;;;;;;11.00;99.90;;;;;;5053554;28;19916;-52
2022/12/29 14:35:49;;;;;;;;;;;11.00;99.90;;;;;;5053697;28;19963;-47
2022/12/29 14:38:16;;;;;;;;;;;11.00;99.90;;;;;;5053572;28;19915;-51
2022/12/29 14:40:42;;;;;;;;;;;11.10;99.90;;;;;;5053386;28;19908;-51
2022/12/29 14:43:19;;;;;;;;;;;11.10;99.90;;;;;;5053553;28;20003;-50
2022/12/29 14:45:48;;;;;;;;;;;11.10;99.90;;;;;;5053374;28;20365;-51
2022/12/29 14:48:21;;;;;;;;;;;11.10;99.90;;;;;;5053223;28;19909;-50
2022/12/29 14:50:47;;;;;;;;;;;11.00;99.90;;;;;;5064767;22;19920;-55
2022/12/29 14:53:31;;;;;;;;;;;11.00;99.90;;;;;;5053332;28;19915;-56
2022/12/29 14:55:57;;;;;;;;;;;11.00;99.90;;;;;;5052375;28;20288;-54
2022/12/29 14:58:28;;;;;;;;;;;11.00;99.90;;;;;;5053470;28;19963;-55
2022/12/29 15:00:54;;;;;;;;;;;11.00;99.90;;;;;;5053004;28;19909;-52
2022/12/29 15:03:24;;;;;;;;;;;11.10;99.90;;;;;;5053101;28;19908;-55
2022/12/29 15:05:52;;;;;;;;;;;11.00;99.90;;;;;;5053177;28;19963;-54
2022/12/29 15:08:19;;;;;;;;;;;11.00;99.90;;;;;;5052948;28;19970;-54
2022/12/29 15:10:47;;;;;;;;;;;11.00;99.90;;;;;;5053214;28;19908;-54
2022/12/29 15:13:15;;;;;;;;;;;11.00;99.90;;;;;;5052995;28;20004;-53
2022/12/29 15:15:40;;;;;;;;;;;11.00;99.90;;;;;;5053074;28;19916;-52